sensor_id;sensor_type;location;lat;lon;timestamp;temperature;humidity
59977;DHT22;45837;51.076;3.578;2022-10-16T00:01:37;19.50;67.60
59977;DHT22;45837;51.076;3.578;2022-10-16T00:04:03;19.50;67.60
59977;DHT22;45837;51.076;3.578;2022-10-16T00:06:30;19.50;67.80
59977;DHT22;45837;51.076;3.578;2022-10-16T00:08:56;19.50;67.70
59977;DHT22;45837;51.076;3.578;2022-10-16T00:11:28;19.50;67.70
59977;DHT22;45837;51.076;3.578;2022-10-16T00:13:58;19.50;67.80
59977;DHT22;45837;51.076;3.578;2022-10-16T00:16:24;19.50;67.90
59977;DHT22;45837;51.076;3.578;2022-10-16T00:18:49;19.50;67.80
59977;DHT22;45837;51.076;3.578;2022-10-16T00:21:22;19.50;67.70
59977;DHT22;45837;51.076;3.578;2022-10-16T00:23:51;19.50;67.90
59977;DHT22;45837;51.076;3.578;2022-10-16T00:26:17;19.50;67.80
59977;DHT22;45837;51.076;3.578;2022-10-16T00:28:46;19.50;67.90
59977;DHT22;45837;51.076;3.578;2022-10-16T00:31:12;19.50;67.90
59977;DHT22;45837;51.076;3.578;2022-10-16T00:33:39;19.50;67.80
59977;DHT22;45837;51.076;3.578;2022-10-16T00:36:07;19.50;67.90
59977;DHT22;45837;51.076;3.578;2022-10-16T00:38:33;19.50;67.80
59977;DHT22;45837;51.076;3.578;2022-10-16T00:40:59;19.50;67.80
59977;DHT22;45837;51.076;3.578;2022-10-16T00:43:52;19.50;67.90
59977;DHT22;45837;51.076;3.578;2022-10-16T00:49:08;19.50;67.80
59977;DHT22;45837;51.076;3.578;2022-10-16T00:51:44;19.50;67.80
59977;DHT22;45837;51.076;3.578;2022-10-16T00:54:14;19.50;68.00
59977;DHT22;45837;51.076;3.578;2022-10-16T00:56:41;19.50;67.80
59977;DHT22;45837;51.076;3.578;2022-10-16T00:59:26;19.50;67.80
59977;DHT22;45837;51.076;3.578;2022-10-16T01:01:53;19.50;67.80
59977;DHT22;45837;51.076;3.578;2022-10-16T01:04:20;19.50;67.70
59977;DHT22;45837;51.076;3.578;2022-10-16T01:07:23;19.50;67.80
59977;DHT22;45837;51.076;3.578;2022-10-16T01:13:05;19.40;68.10
59977;DHT22;45837;51.076;3.578;2022-10-16T01:18:28;19.40;68.50
59977;DHT22;45837;51.076;3.578;2022-10-16T01:20:59;19.40;67.80
59977;DHT22;45837;51.076;3.578;2022-10-16T01:26:35;19.40;67.90
59977;DHT22;45837;51.076;3.578;2022-10-16T01:29:29;19.40;67.90
59977;DHT22;45837;51.076;3.578;2022-10-16T01:32:10;19.40;67.80
59977;DHT22;45837;51.076;3.578;2022-10-16T01:34:44;19.40;67.80
59977;DHT22;45837;51.076;3.578;2022-10-16T01:37:16;19.40;67.90
59977;DHT22;45837;51.076;3.578;2022-10-16T01:39:47;19.40;67.70
59977;DHT22;45837;51.076;3.578;2022-10-16T01:42:20;19.40;68.00
59977;DHT22;45837;51.076;3.578;2022-10-16T01:44:48;19.40;67.80
59977;DHT22;45837;51.076;3.578;2022-10-16T01:47:14;19.40;67.80
59977;DHT22;45837;51.076;3.578;2022-10-16T01:49:42;19.40;67.70
59977;DHT22;45837;51.076;3.578;2022-10-16T01:52:12;19.40;67.70
59977;DHT22;45837;51.076;3.578;2022-10-16T01:54:42;19.40;67.90
59977;DHT22;45837;51.076;3.578;2022-10-16T01:57:10;19.40;67.80
59977;DHT22;45837;51.076;3.578;2022-10-16T01:59:46;19.40;67.80
59977;DHT22;45837;51.076;3.578;2022-10-16T02:02:15;19.40;67.80
59977;DHT22;45837;51.076;3.578;2022-10-16T02:04:50;19.40;67.90
59977;DHT22;45837;51.076;3.578;2022-10-16T02:07:17;19.40;67.80
59977;DHT22;45837;51.076;3.578;2022-10-16T02:09:43;19.40;67.90
59977;DHT22;45837;51.076;3.578;2022-10-16T02:12:28;19.40;67.70
59977;DHT22;45837;51.076;3.578;2022-10-16T02:14:54;19.40;67.80
59977;DHT22;45837;51.076;3.578;2022-10-16T02:17:20;19.40;67.80
59977;DHT22;45837;51.076;3.578;2022-10-16T02:19:48;19.40;67.70
59977;DHT22;45837;51.076;3.578;2022-10-16T02:22:39;19.40;67.70
59977;DHT22;45837;51.076;3.578;2022-10-16T02:25:25;19.40;67.90
59977;DHT22;45837;51.076;3.578;2022-10-16T02:28:06;19.40;67.70
59977;DHT22;45837;51.076;3.578;2022-10-16T02:30:41;19.40;67.70
59977;DHT22;45837;51.076;3.578;2022-10-16T02:33:10;19.30;67.70
59977;DHT22;45837;51.076;3.578;2022-10-16T02:35:40;19.30;67.70
59977;DHT22;45837;51.076;3.578;2022-10-16T02:38:07;19.40;67.70
59977;DHT22;45837;51.076;3.578;2022-10-16T02:40:34;19.40;67.70
59977;DHT22;45837;51.076;3.578;2022-10-16T02:43:00;19.40;67.70
59977;DHT22;45837;51.076;3.578;2022-10-16T02:45:28;19.40;67.70
59977;DHT22;45837;51.076;3.578;2022-10-16T02:47:54;19.40;67.70
59977;DHT22;45837;51.076;3.578;2022-10-16T02:50:20;19.40;67.70
59977;DHT22;45837;51.076;3.578;2022-10-16T02:52:46;19.40;67.70
59977;DHT22;45837;51.076;3.578;2022-10-16T02:55:12;19.40;67.70
59977;DHT22;45837;51.076;3.578;2022-10-16T02:57:38;19.40;67.60
59977;DHT22;45837;51.076;3.578;2022-10-16T03:00:07;19.40;67.70
59977;DHT22;45837;51.076;3.578;2022-10-16T03:02:33;19.40;67.60
59977;DHT22;45837;51.076;3.578;2022-10-16T03:04:59;19.40;67.60
59977;DHT22;45837;51.076;3.578;2022-10-16T03:07:25;19.40;67.50
59977;DHT22;45837;51.076;3.578;2022-10-16T03:09:50;19.40;67.50
59977;DHT22;45837;51.076;3.578;2022-10-16T03:12:16;19.30;67.40
59977;DHT22;45837;51.076;3.578;2022-10-16T03:14:42;19.40;67.50
59977;DHT22;45837;51.076;3.578;2022-10-16T03:17:07;19.40;67.60
59977;DHT22;45837;51.076;3.578;2022-10-16T03:19:33;19.40;67.60
59977;DHT22;45837;51.076;3.578;2022-10-16T03:22:00;19.40;67.50
59977;DHT22;45837;51.076;3.578;2022-10-16T03:24:25;19.40;67.60
59977;DHT22;45837;51.076;3.578;2022-10-16T03:26:51;19.40;67.50
59977;DHT22;45837;51.076;3.578;2022-10-16T03:29:17;19.40;67.40
59977;DHT22;45837;51.076;3.578;2022-10-16T03:31:42;19.40;67.50
59977;DHT22;45837;51.076;3.578;2022-10-16T03:34:08;19.40;67.40
59977;DHT22;45837;51.076;3.578;2022-10-16T03:36:34;19.40;67.50
59977;DHT22;45837;51.076;3.578;2022-10-16T03:39:00;19.40;67.40
59977;DHT22;45837;51.076;3.578;2022-10-16T03:41:26;19.40;67.40
59977;DHT22;45837;51.076;3.578;2022-10-16T03:43:52;19.40;67.40
59977;DHT22;45837;51.076;3.578;2022-10-16T03:46:17;19.40;67.50
59977;DHT22;45837;51.076;3.578;2022-10-16T03:48:43;19.30;67.30
59977;DHT22;45837;51.076;3.578;2022-10-16T03:51:09;19.40;67.50
59977;DHT22;45837;51.076;3.578;2022-10-16T03:53:35;19.40;67.40
59977;DHT22;45837;51.076;3.578;2022-10-16T03:56:00;19.40;67.50
59977;DHT22;45837;51.076;3.578;2022-10-16T03:58:26;19.40;67.40
59977;DHT22;45837;51.076;3.578;2022-10-16T04:00:52;19.40;67.40
59977;DHT22;45837;51.076;3.578;2022-10-16T04:03:17;19.40;67.30
59977;DHT22;45837;51.076;3.578;2022-10-16T04:05:44;19.40;67.30
59977;DHT22;45837;51.076;3.578;2022-10-16T04:08:10;19.40;67.30
59977;DHT22;45837;51.076;3.578;2022-10-16T04:10:36;19.40;67.20
59977;DHT22;45837;51.076;3.578;2022-10-16T04:13:02;19.40;67.20
59977;DHT22;45837;51.076;3.578;2022-10-16T04:15:27;19.40;67.30
59977;DHT22;45837;51.076;3.578;2022-10-16T04:17:53;19.40;67.20
59977;DHT22;45837;51.076;3.578;2022-10-16T04:20:19;19.40;67.30
59977;DHT22;45837;51.076;3.578;2022-10-16T04:22:45;19.40;67.30
59977;DHT22;45837;51.076;3.578;2022-10-16T04:25:11;19.40;68.00
59977;DHT22;45837;51.076;3.578;2022-10-16T04:27:37;19.40;67.20
59977;DHT22;45837;51.076;3.578;2022-10-16T04:30:04;19.40;67.20
59977;DHT22;45837;51.076;3.578;2022-10-16T04:32:29;19.40;67.20
59977;DHT22;45837;51.076;3.578;2022-10-16T04:34:55;19.40;67.30
59977;DHT22;45837;51.076;3.578;2022-10-16T04:37:25;19.40;67.00
59977;DHT22;45837;51.076;3.578;2022-10-16T04:39:52;19.40;67.10
59977;DHT22;45837;51.076;3.578;2022-10-16T04:42:18;19.40;67.00
59977;DHT22;45837;51.076;3.578;2022-10-16T04:44:43;19.40;67.00
59977;DHT22;45837;51.076;3.578;2022-10-16T04:47:09;19.40;67.00
59977;DHT22;45837;51.076;3.578;2022-10-16T04:49:35;19.40;66.90
59977;DHT22;45837;51.076;3.578;2022-10-16T04:52:01;19.40;67.00
59977;DHT22;45837;51.076;3.578;2022-10-16T04:54:26;19.40;67.00
59977;DHT22;45837;51.076;3.578;2022-10-16T04:56:52;19.40;67.00
59977;DHT22;45837;51.076;3.578;2022-10-16T04:59:19;19.40;66.90
59977;DHT22;45837;51.076;3.578;2022-10-16T05:01:45;19.40;67.00
59977;DHT22;45837;51.076;3.578;2022-10-16T05:04:11;19.40;67.00
59977;DHT22;45837;51.076;3.578;2022-10-16T05:06:37;19.40;67.00
59977;DHT22;45837;51.076;3.578;2022-10-16T05:09:04;19.40;67.00
59977;DHT22;45837;51.076;3.578;2022-10-16T05:11:31;19.40;66.90
59977;DHT22;45837;51.076;3.578;2022-10-16T05:13:56;19.40;67.00
59977;DHT22;45837;51.076;3.578;2022-10-16T05:16:22;19.50;67.00
59977;DHT22;45837;51.076;3.578;2022-10-16T05:18:48;19.40;66.80
59977;DHT22;45837;51.076;3.578;2022-10-16T05:21:14;19.50;66.90
59977;DHT22;45837;51.076;3.578;2022-10-16T05:23:40;19.40;66.80
59977;DHT22;45837;51.076;3.578;2022-10-16T05:26:05;19.40;66.80
59977;DHT22;45837;51.076;3.578;2022-10-16T05:28:32;19.40;66.90
59977;DHT22;45837;51.076;3.578;2022-10-16T05:30:57;19.40;66.90
59977;DHT22;45837;51.076;3.578;2022-10-16T05:33:25;19.40;66.80
59977;DHT22;45837;51.076;3.578;2022-10-16T05:35:51;19.40;66.80
59977;DHT22;45837;51.076;3.578;2022-10-16T05:38:18;19.40;66.90
59977;DHT22;45837;51.076;3.578;2022-10-16T05:40:50;19.40;67.00
59977;DHT22;45837;51.076;3.578;2022-10-16T05:43:16;19.40;66.90
59977;DHT22;45837;51.076;3.578;2022-10-16T05:45:42;19.40;66.80
59977;DHT22;45837;51.076;3.578;2022-10-16T05:48:08;19.40;66.80
59977;DHT22;45837;51.076;3.578;2022-10-16T05:50:34;19.40;66.90
59977;DHT22;45837;51.076;3.578;2022-10-16T05:52:59;19.40;66.70
59977;DHT22;45837;51.076;3.578;2022-10-16T05:55:25;19.40;66.80
59977;DHT22;45837;51.076;3.578;2022-10-16T05:57:54;19.40;66.80
59977;DHT22;45837;51.076;3.578;2022-10-16T06:00:20;19.40;66.70
59977;DHT22;45837;51.076;3.578;2022-10-16T06:02:46;19.40;66.80
59977;DHT22;45837;51.076;3.578;2022-10-16T06:05:11;19.40;66.70
59977;DHT22;45837;51.076;3.578;2022-10-16T06:07:37;19.40;66.90
59977;DHT22;45837;51.076;3.578;2022-10-16T06:10:04;19.40;66.90
59977;DHT22;45837;51.076;3.578;2022-10-16T06:12:30;19.40;66.80
59977;DHT22;45837;51.076;3.578;2022-10-16T06:14:55;19.40;66.80
59977;DHT22;45837;51.076;3.578;2022-10-16T06:17:21;19.40;66.80
59977;DHT22;45837;51.076;3.578;2022-10-16T06:19:47;19.40;66.90
59977;DHT22;45837;51.076;3.578;2022-10-16T06:22:13;19.40;66.90
59977;DHT22;45837;51.076;3.578;2022-10-16T06:24:39;19.40;66.80
59977;DHT22;45837;51.076;3.578;2022-10-16T06:27:05;19.20;66.80
59977;DHT22;45837;51.076;3.578;2022-10-16T06:29:30;19.40;66.80
59977;DHT22;45837;51.076;3.578;2022-10-16T06:31:56;19.40;66.90
59977;DHT22;45837;51.076;3.578;2022-10-16T06:34:22;19.40;67.70
59977;DHT22;45837;51.076;3.578;2022-10-16T06:36:48;19.40;66.70
59977;DHT22;45837;51.076;3.578;2022-10-16T06:39:14;19.40;66.90
59977;DHT22;45837;51.076;3.578;2022-10-16T06:41:40;19.40;66.70
59977;DHT22;45837;51.076;3.578;2022-10-16T06:44:15;19.40;67.00
59977;DHT22;45837;51.076;3.578;2022-10-16T06:46:41;19.40;67.00
59977;DHT22;45837;51.076;3.578;2022-10-16T06:49:07;19.40;66.80
59977;DHT22;45837;51.076;3.578;2022-10-16T06:51:32;19.20;66.80
59977;DHT22;45837;51.076;3.578;2022-10-16T06:54:01;19.40;66.80
59977;DHT22;45837;51.076;3.578;2022-10-16T06:56:28;19.40;66.80
59977;DHT22;45837;51.076;3.578;2022-10-16T06:58:56;19.40;66.90
59977;DHT22;45837;51.076;3.578;2022-10-16T07:01:23;19.40;66.80
59977;DHT22;45837;51.076;3.578;2022-10-16T07:03:49;19.40;67.00
59977;DHT22;45837;51.076;3.578;2022-10-16T07:06:17;19.40;66.80
59977;DHT22;45837;51.076;3.578;2022-10-16T07:08:44;19.40;66.80
59977;DHT22;45837;51.076;3.578;2022-10-16T07:11:13;19.40;66.70
59977;DHT22;45837;51.076;3.578;2022-10-16T07:13:42;19.40;66.80
59977;DHT22;45837;51.076;3.578;2022-10-16T07:16:19;19.30;66.50
59977;DHT22;45837;51.076;3.578;2022-10-16T07:18:46;19.40;66.60
59977;DHT22;45837;51.076;3.578;2022-10-16T07:21:16;19.50;66.50
59977;DHT22;45837;51.076;3.578;2022-10-16T07:23:43;19.30;66.50
59977;DHT22;45837;51.076;3.578;2022-10-16T07:26:09;19.60;66.90
59977;DHT22;45837;51.076;3.578;2022-10-16T07:28:36;19.50;67.40
59977;DHT22;45837;51.076;3.578;2022-10-16T07:31:07;19.70;68.00
59977;DHT22;45837;51.076;3.578;2022-10-16T07:33:34;19.70;68.30
59977;DHT22;45837;51.076;3.578;2022-10-16T07:36:01;19.70;68.30
59977;DHT22;45837;51.076;3.578;2022-10-16T07:38:27;19.70;68.20
59977;DHT22;45837;51.076;3.578;2022-10-16T07:41:01;19.70;68.20
59977;DHT22;45837;51.076;3.578;2022-10-16T07:43:29;19.60;68.10
59977;DHT22;45837;51.076;3.578;2022-10-16T07:45:55;19.70;68.20
59977;DHT22;45837;51.076;3.578;2022-10-16T07:48:23;19.80;68.30
59977;DHT22;45837;51.076;3.578;2022-10-16T07:50:49;19.80;68.30
59977;DHT22;45837;51.076;3.578;2022-10-16T07:53:15;19.80;68.30
59977;DHT22;45837;51.076;3.578;2022-10-16T07:55:42;19.80;68.30
59977;DHT22;45837;51.076;3.578;2022-10-16T07:58:08;19.80;68.20
59977;DHT22;45837;51.076;3.578;2022-10-16T08:00:36;19.70;68.30
59977;DHT22;45837;51.076;3.578;2022-10-16T08:03:02;19.80;68.20
59977;DHT22;45837;51.076;3.578;2022-10-16T08:05:29;19.80;68.10
59977;DHT22;45837;51.076;3.578;2022-10-16T08:07:56;19.80;68.20
59977;DHT22;45837;51.076;3.578;2022-10-16T08:10:25;19.80;68.40
59977;DHT22;45837;51.076;3.578;2022-10-16T08:12:51;19.80;68.20
59977;DHT22;45837;51.076;3.578;2022-10-16T08:15:18;19.80;68.20
59977;DHT22;45837;51.076;3.578;2022-10-16T08:17:44;19.80;68.10
59977;DHT22;45837;51.076;3.578;2022-10-16T08:20:10;19.80;68.20
59977;DHT22;45837;51.076;3.578;2022-10-16T08:22:36;19.80;68.30
59977;DHT22;45837;51.076;3.578;2022-10-16T08:25:02;19.80;68.30
59977;DHT22;45837;51.076;3.578;2022-10-16T08:27:32;19.80;68.30
59977;DHT22;45837;51.076;3.578;2022-10-16T08:29:58;19.80;68.50
59977;DHT22;45837;51.076;3.578;2022-10-16T08:32:24;19.80;68.90
59977;DHT22;45837;51.076;3.578;2022-10-16T08:34:50;19.90;68.80
59977;DHT22;45837;51.076;3.578;2022-10-16T08:37:15;19.90;68.80
59977;DHT22;45837;51.076;3.578;2022-10-16T08:39:41;19.90;68.90
59977;DHT22;45837;51.076;3.578;2022-10-16T08:42:31;19.90;68.90
59977;DHT22;45837;51.076;3.578;2022-10-16T08:50:26;19.90;69.70
59977;DHT22;45837;51.076;3.578;2022-10-16T08:52:54;19.90;69.10
59977;DHT22;45837;51.076;3.578;2022-10-16T08:55:34;19.90;68.90
59977;DHT22;45837;51.076;3.578;2022-10-16T08:58:19;19.90;68.90
59977;DHT22;45837;51.076;3.578;2022-10-16T09:00:53;19.90;68.80
59977;DHT22;45837;51.076;3.578;2022-10-16T09:03:24;19.90;68.50
59977;DHT22;45837;51.076;3.578;2022-10-16T09:22:44;19.90;67.40
59977;DHT22;45837;51.076;3.578;2022-10-16T09:25:18;19.90;67.30
59977;DHT22;45837;51.076;3.578;2022-10-16T09:27:47;19.90;67.10
59977;DHT22;45837;51.076;3.578;2022-10-16T09:30:18;19.90;66.90
59977;DHT22;45837;51.076;3.578;2022-10-16T09:32:49;19.90;66.90
59977;DHT22;45837;51.076;3.578;2022-10-16T09:35:19;19.90;66.80
59977;DHT22;45837;51.076;3.578;2022-10-16T09:37:49;19.90;66.60
59977;DHT22;45837;51.076;3.578;2022-10-16T09:40:29;19.90;66.60
59977;DHT22;45837;51.076;3.578;2022-10-16T09:43:20;19.90;66.60
59977;DHT22;45837;51.076;3.578;2022-10-16T09:46:02;19.90;66.60
59977;DHT22;45837;51.076;3.578;2022-10-16T09:48:39;19.90;66.30
59977;DHT22;45837;51.076;3.578;2022-10-16T09:51:32;19.90;66.20
59977;DHT22;45837;51.076;3.578;2022-10-16T09:56:34;20.00;66.10
59977;DHT22;45837;51.076;3.578;2022-10-16T09:59:15;20.00;66.00
59977;DHT22;45837;51.076;3.578;2022-10-16T10:01:45;20.00;66.10
59977;DHT22;45837;51.076;3.578;2022-10-16T10:04:12;20.00;65.90
59977;DHT22;45837;51.076;3.578;2022-10-16T10:06:50;20.10;66.00
59977;DHT22;45837;51.076;3.578;2022-10-16T10:09:37;20.10;65.90
59977;DHT22;45837;51.076;3.578;2022-10-16T10:12:19;20.10;65.80
59977;DHT22;45837;51.076;3.578;2022-10-16T10:14:47;20.10;65.80
59977;DHT22;45837;51.076;3.578;2022-10-16T10:17:15;20.10;65.70
59977;DHT22;45837;51.076;3.578;2022-10-16T10:19:54;20.20;65.60
59977;DHT22;45837;51.076;3.578;2022-10-16T10:22:53;20.20;65.40
59977;DHT22;45837;51.076;3.578;2022-10-16T10:25:26;20.30;65.10
59977;DHT22;45837;51.076;3.578;2022-10-16T10:28:03;20.20;65.00
59977;DHT22;45837;51.076;3.578;2022-10-16T10:33:49;20.30;64.90
59977;DHT22;45837;51.076;3.578;2022-10-16T10:36:28;20.30;64.90
59977;DHT22;45837;51.076;3.578;2022-10-16T10:39:00;20.30;64.90
59977;DHT22;45837;51.076;3.578;2022-10-16T10:52:53;20.30;64.80
59977;DHT22;45837;51.076;3.578;2022-10-16T11:06:26;20.40;64.80
59977;DHT22;45837;51.076;3.578;2022-10-16T11:11:35;20.40;64.50
59977;DHT22;45837;51.076;3.578;2022-10-16T11:16:44;20.40;64.50
59977;DHT22;45837;51.076;3.578;2022-10-16T11:25:13;20.50;64.50
59977;DHT22;45837;51.076;3.578;2022-10-16T11:27:56;20.50;64.20
59977;DHT22;45837;51.076;3.578;2022-10-16T11:30:26;20.50;64.00
59977;DHT22;45837;51.076;3.578;2022-10-16T11:33:23;20.40;63.50
59977;DHT22;45837;51.076;3.578;2022-10-16T11:44:03;20.50;62.40
59977;DHT22;45837;51.076;3.578;2022-10-16T11:46:33;20.50;62.30
59977;DHT22;45837;51.076;3.578;2022-10-16T11:49:09;20.50;62.30
59977;DHT22;45837;51.076;3.578;2022-10-16T11:52:23;20.40;62.10
59977;DHT22;45837;51.076;3.578;2022-10-16T11:54:47;20.40;62.60
59977;DHT22;45837;51.076;3.578;2022-10-16T11:57:27;20.40;63.90
59977;DHT22;45837;51.076;3.578;2022-10-16T12:00:22;20.40;64.10
59977;DHT22;45837;51.076;3.578;2022-10-16T12:05:29;20.50;65.90
59977;DHT22;45837;51.076;3.578;2022-10-16T12:08:12;20.50;65.80
59977;DHT22;45837;51.076;3.578;2022-10-16T12:10:41;20.50;65.70
59977;DHT22;45837;51.076;3.578;2022-10-16T12:13:33;20.50;65.40
59977;DHT22;45837;51.076;3.578;2022-10-16T12:18:32;20.50;65.60
59977;DHT22;45837;51.076;3.578;2022-10-16T12:20:59;20.50;65.60
59977;DHT22;45837;51.076;3.578;2022-10-16T12:23:32;20.60;65.50
59977;DHT22;45837;51.076;3.578;2022-10-16T12:25:59;20.60;65.20
59977;DHT22;45837;51.076;3.578;2022-10-16T12:28:30;20.60;65.20
59977;DHT22;45837;51.076;3.578;2022-10-16T12:31:05;20.60;65.40
59977;DHT22;45837;51.076;3.578;2022-10-16T12:33:39;20.60;65.60
59977;DHT22;45837;51.076;3.578;2022-10-16T12:36:15;20.50;65.20
59977;DHT22;45837;51.076;3.578;2022-10-16T12:38:51;20.60;65.80
59977;DHT22;45837;51.076;3.578;2022-10-16T12:41:33;20.60;66.00
59977;DHT22;45837;51.076;3.578;2022-10-16T12:44:00;20.50;67.10
59977;DHT22;45837;51.076;3.578;2022-10-16T12:51:40;20.60;69.30
59977;DHT22;45837;51.076;3.578;2022-10-16T12:56:47;20.50;70.20
59977;DHT22;45837;51.076;3.578;2022-10-16T12:59:38;20.60;70.20
59977;DHT22;45837;51.076;3.578;2022-10-16T13:13:56;20.50;69.00
59977;DHT22;45837;51.076;3.578;2022-10-16T13:19:35;20.50;68.40
59977;DHT22;45837;51.076;3.578;2022-10-16T13:22:12;20.50;68.30
59977;DHT22;45837;51.076;3.578;2022-10-16T13:27:25;20.40;68.20
59977;DHT22;45837;51.076;3.578;2022-10-16T13:30:02;20.40;68.20
59977;DHT22;45837;51.076;3.578;2022-10-16T13:32:34;20.40;68.00
59977;DHT22;45837;51.076;3.578;2022-10-16T13:35:00;20.40;68.00
59977;DHT22;45837;51.076;3.578;2022-10-16T13:37:26;20.40;67.90
59977;DHT22;45837;51.076;3.578;2022-10-16T13:40:09;20.40;67.90
59977;DHT22;45837;51.076;3.578;2022-10-16T13:42:39;20.50;67.90
59977;DHT22;45837;51.076;3.578;2022-10-16T13:45:05;20.40;67.80
59977;DHT22;45837;51.076;3.578;2022-10-16T13:47:31;20.40;67.80
59977;DHT22;45837;51.076;3.578;2022-10-16T13:50:01;20.40;67.70
59977;DHT22;45837;51.076;3.578;2022-10-16T13:52:28;20.40;67.60
59977;DHT22;45837;51.076;3.578;2022-10-16T13:54:54;20.40;67.40
59977;DHT22;45837;51.076;3.578;2022-10-16T13:57:23;20.40;67.40
59977;DHT22;45837;51.076;3.578;2022-10-16T13:59:49;20.40;67.30
59977;DHT22;45837;51.076;3.578;2022-10-16T14:02:36;20.30;67.20
59977;DHT22;45837;51.076;3.578;2022-10-16T14:05:04;20.40;67.30
59977;DHT22;45837;51.076;3.578;2022-10-16T14:07:34;20.30;67.10
59977;DHT22;45837;51.076;3.578;2022-10-16T14:10:03;20.30;67.10
59977;DHT22;45837;51.076;3.578;2022-10-16T14:12:30;20.30;67.00
59977;DHT22;45837;51.076;3.578;2022-10-16T14:14:57;20.30;66.90
59977;DHT22;45837;51.076;3.578;2022-10-16T14:17:35;20.40;66.50
59977;DHT22;45837;51.076;3.578;2022-10-16T14:20:04;20.30;67.10
59977;DHT22;45837;51.076;3.578;2022-10-16T14:25:01;20.30;66.60
59977;DHT22;45837;51.076;3.578;2022-10-16T14:27:35;20.30;66.50
59977;DHT22;45837;51.076;3.578;2022-10-16T14:30:21;20.30;66.50
59977;DHT22;45837;51.076;3.578;2022-10-16T14:32:59;20.40;66.70
59977;DHT22;45837;51.076;3.578;2022-10-16T14:35:36;20.30;66.60
59977;DHT22;45837;51.076;3.578;2022-10-16T14:38:04;20.40;66.70
59977;DHT22;45837;51.076;3.578;2022-10-16T14:40:35;20.40;66.60
59977;DHT22;45837;51.076;3.578;2022-10-16T14:43:03;20.30;66.50
59977;DHT22;45837;51.076;3.578;2022-10-16T14:45:32;20.30;66.50
59977;DHT22;45837;51.076;3.578;2022-10-16T14:48:01;20.30;66.50
59977;DHT22;45837;51.076;3.578;2022-10-16T14:50:28;20.30;66.50
59977;DHT22;45837;51.076;3.578;2022-10-16T14:52:54;20.30;66.60
59977;DHT22;45837;51.076;3.578;2022-10-16T14:55:20;20.30;66.30
59977;DHT22;45837;51.076;3.578;2022-10-16T14:57:46;20.30;66.10
59977;DHT22;45837;51.076;3.578;2022-10-16T15:00:19;20.30;65.80
59977;DHT22;45837;51.076;3.578;2022-10-16T15:02:47;20.30;65.60
59977;DHT22;45837;51.076;3.578;2022-10-16T15:05:26;20.30;65.30
59977;DHT22;45837;51.076;3.578;2022-10-16T15:07:55;20.30;65.30
59977;DHT22;45837;51.076;3.578;2022-10-16T15:10:22;20.30;65.10
59977;DHT22;45837;51.076;3.578;2022-10-16T15:12:49;20.30;65.00
59977;DHT22;45837;51.076;3.578;2022-10-16T15:15:24;20.30;65.30
59977;DHT22;45837;51.076;3.578;2022-10-16T15:17:53;20.30;64.90
59977;DHT22;45837;51.076;3.578;2022-10-16T15:20:25;20.30;64.80
59977;DHT22;45837;51.076;3.578;2022-10-16T15:22:51;20.30;64.70
59977;DHT22;45837;51.076;3.578;2022-10-16T15:27:58;20.30;64.90
59977;DHT22;45837;51.076;3.578;2022-10-16T15:30:25;20.30;65.70
59977;DHT22;45837;51.076;3.578;2022-10-16T15:32:51;20.40;65.20
59977;DHT22;45837;51.076;3.578;2022-10-16T15:35:17;20.30;65.30
59977;DHT22;45837;51.076;3.578;2022-10-16T15:37:43;20.40;65.40
59977;DHT22;45837;51.076;3.578;2022-10-16T15:40:10;20.40;65.70
59977;DHT22;45837;51.076;3.578;2022-10-16T15:42:36;20.40;65.60
59977;DHT22;45837;51.076;3.578;2022-10-16T15:45:02;20.40;65.90
59977;DHT22;45837;51.076;3.578;2022-10-16T15:47:29;20.40;66.00
59977;DHT22;45837;51.076;3.578;2022-10-16T15:49:55;20.40;65.80
59977;DHT22;45837;51.076;3.578;2022-10-16T15:52:21;20.40;66.10
59977;DHT22;45837;51.076;3.578;2022-10-16T15:54:47;20.40;66.20
59977;DHT22;45837;51.076;3.578;2022-10-16T15:57:13;20.40;66.20
59977;DHT22;45837;51.076;3.578;2022-10-16T15:59:39;20.40;66.40
59977;DHT22;45837;51.076;3.578;2022-10-16T16:02:05;20.50;66.40
59977;DHT22;45837;51.076;3.578;2022-10-16T16:04:31;20.40;66.10
59977;DHT22;45837;51.076;3.578;2022-10-16T16:06:57;20.50;65.90
59977;DHT22;45837;51.076;3.578;2022-10-16T16:09:23;20.40;65.90
59977;DHT22;45837;51.076;3.578;2022-10-16T16:11:49;20.50;66.10
59977;DHT22;45837;51.076;3.578;2022-10-16T16:14:16;20.50;65.80
59977;DHT22;45837;51.076;3.578;2022-10-16T16:16:42;20.40;66.00
59977;DHT22;45837;51.076;3.578;2022-10-16T16:19:08;20.40;66.00
59977;DHT22;45837;51.076;3.578;2022-10-16T16:21:35;20.40;66.10
59977;DHT22;45837;51.076;3.578;2022-10-16T16:24:01;20.50;66.10
59977;DHT22;45837;51.076;3.578;2022-10-16T16:26:34;20.50;66.00
59977;DHT22;45837;51.076;3.578;2022-10-16T16:29:04;20.40;66.00
59977;DHT22;45837;51.076;3.578;2022-10-16T16:31:31;20.40;66.20
59977;DHT22;45837;51.076;3.578;2022-10-16T16:33:57;20.40;66.00
59977;DHT22;45837;51.076;3.578;2022-10-16T16:36:24;20.50;66.10
59977;DHT22;45837;51.076;3.578;2022-10-16T16:38:50;20.50;66.10
59977;DHT22;45837;51.076;3.578;2022-10-16T16:41:24;20.50;66.30
59977;DHT22;45837;51.076;3.578;2022-10-16T16:43:52;20.40;66.20
59977;DHT22;45837;51.076;3.578;2022-10-16T16:46:18;20.40;66.40
59977;DHT22;45837;51.076;3.578;2022-10-16T16:48:45;20.50;66.40
59977;DHT22;45837;51.076;3.578;2022-10-16T16:51:13;20.40;66.10
59977;DHT22;45837;51.076;3.578;2022-10-16T16:53:47;20.50;66.30
59977;DHT22;45837;51.076;3.578;2022-10-16T16:56:13;20.60;66.40
59977;DHT22;45837;51.076;3.578;2022-10-16T16:58:39;20.40;66.40
59977;DHT22;45837;51.076;3.578;2022-10-16T17:01:06;20.50;66.20
59977;DHT22;45837;51.076;3.578;2022-10-16T17:03:34;20.50;66.40
59977;DHT22;45837;51.076;3.578;2022-10-16T17:06:05;20.50;66.20
59977;DHT22;45837;51.076;3.578;2022-10-16T17:08:35;20.50;66.20
59977;DHT22;45837;51.076;3.578;2022-10-16T17:11:02;20.50;66.30
59977;DHT22;45837;51.076;3.578;2022-10-16T17:13:31;20.40;66.50
59977;DHT22;45837;51.076;3.578;2022-10-16T17:15:57;20.50;66.30
59977;DHT22;45837;51.076;3.578;2022-10-16T17:18:23;20.60;66.50
59977;DHT22;45837;51.076;3.578;2022-10-16T17:20:50;20.30;66.20
59977;DHT22;45837;51.076;3.578;2022-10-16T17:23:18;20.50;66.50
59977;DHT22;45837;51.076;3.578;2022-10-16T17:25:45;20.50;66.30
59977;DHT22;45837;51.076;3.578;2022-10-16T17:28:13;20.50;66.30
59977;DHT22;45837;51.076;3.578;2022-10-16T17:30:40;20.50;66.40
59977;DHT22;45837;51.076;3.578;2022-10-16T17:33:07;20.50;66.30
59977;DHT22;45837;51.076;3.578;2022-10-16T17:35:38;20.50;66.30
59977;DHT22;45837;51.076;3.578;2022-10-16T17:38:04;20.40;66.20
59977;DHT22;45837;51.076;3.578;2022-10-16T17:40:30;20.50;67.10
59977;DHT22;45837;51.076;3.578;2022-10-16T17:42:57;20.50;66.40